Time;durP1;ratioP1;P1;durP2;ratioP2;P2;SDS_P1;SDS_P2;PMS_P1;PMS_P2;Temp;Humidity;BMP_temperature;BMP_pressure;BME280_temperature;BME280_humidity;BME280_pressure;Samples;Min_cycle;Max_cycle;Signal;HPM_P1;HPM_P2
2021/05/28 00:00:15;;;;;;;14.27;9.15;;;;;;;17.21;100.00;97170.47;4981372;28;20459;-79
2021/05/28 00:02:41;;;;;;;18.50;10.00;;;;;;;17.23;100.00;97172.00;4981238;28;20036;-79
2021/05/28 00:05:07;;;;;;;15.70;10.00;;;;;;;17.20;100.00;97172.31;4997353;28;20034;-79
2021/05/28 00:07:33;;;;;;;21.27;9.52;;;;;;;17.20;100.00;97164.19;4997410;28;20034;-79
2021/05/28 00:09:58;;;;;;;26.77;11.90;;;;;;;17.12;100.00;97161.38;4981281;28;20034;-78
2021/05/28 00:12:24;;;;;;;23.25;10.63;;;;;;;17.11;100.00;97158.81;4997184;28;20088;-79
2021/05/28 00:14:50;;;;;;;16.63;10.90;;;;;;;16.99;100.00;97143.75;4997260;28;20029;-78
2021/05/28 00:17:16;;;;;;;20.33;11.23;;;;;;;16.90;100.00;97144.63;4997363;28;20025;-78
2021/05/28 00:19:42;;;;;;;22.00;11.75;;;;;;;17.00;100.00;97157.13;4997303;28;20104;-78
2021/05/28 00:22:07;;;;;;;21.42;11.93;;;;;;;17.10;100.00;97149.00;4997392;28;20041;-79
2021/05/28 00:24:33;;;;;;;17.92;10.93;;;;;;;17.12;100.00;97149.72;4980881;28;20026;-78
2021/05/28 00:26:59;;;;;;;24.88;11.43;;;;;;;17.08;100.00;97134.78;5014543;28;20029;-78
2021/05/28 00:29:24;;;;;;;19.85;10.70;;;;;;;17.16;100.00;97145.72;4996834;28;20137;-79
2021/05/28 00:31:50;;;;;;;19.27;11.13;;;;;;;17.10;100.00;97138.19;4980691;28;20030;-79
2021/05/28 00:34:15;;;;;;;18.42;10.93;;;;;;;17.04;100.00;97127.97;4996677;28;20112;-78
2021/05/28 00:36:41;;;;;;;20.05;11.30;;;;;;;17.07;100.00;97141.19;4997054;28;20041;-77
2021/05/28 00:39:06;;;;;;;19.67;11.27;;;;;;;17.04;100.00;97126.09;5014622;28;20109;-78
2021/05/28 00:41:32;;;;;;;24.15;11.25;;;;;;;16.94;100.00;97136.09;4996819;28;20048;-79
2021/05/28 00:43:58;;;;;;;22.52;9.93;;;;;;;16.96;100.00;97147.59;5014375;28;20022;-78
2021/05/28 00:46:26;;;;;;;21.77;9.90;;;;;;;16.94;100.00;97137.94;4980544;28;20064;-78
2021/05/28 00:48:54;;;;;;;19.77;9.73;;;;;;;16.93;100.00;97133.50;4995969;28;20097;-79
2021/05/28 00:51:21;;;;;;;34.28;11.27;;;;;;;16.85;100.00;97119.88;4996535;28;20042;-79
2021/05/28 00:53:47;;;;;;;20.42;9.82;;;;;;;16.76;100.00;97133.25;4980306;28;20026;-79
2021/05/28 00:56:14;;;;;;;18.67;10.80;;;;;;;16.69;100.00;97132.13;4996501;28;20040;-79
2021/05/28 00:58:40;;;;;;;24.10;11.55;;;;;;;16.58;100.00;97116.06;4980293;28;20054;-77
2021/05/28 01:01:08;;;;;;;17.77;12.05;;;;;;;16.54;100.00;97117.34;4996369;28;20054;-78
2021/05/28 01:03:34;;;;;;;23.98;12.40;;;;;;;16.50;100.00;97107.78;4980135;28;20038;-77
2021/05/28 01:05:59;;;;;;;20.92;12.27;;;;;;;16.38;100.00;97102.66;4996648;28;20069;-77
2021/05/28 01:08:25;;;;;;;25.25;13.63;;;;;;;16.30;100.00;97110.63;4996222;28;20026;-79
2021/05/28 01:10:50;;;;;;;25.77;12.85;;;;;;;16.21;100.00;97106.94;4996405;28;20025;-78
2021/05/28 01:13:16;;;;;;;23.70;13.38;;;;;;;16.21;100.00;97104.25;4979803;28;20034;-77
2021/05/28 01:15:42;;;;;;;17.42;12.52;;;;;;;16.15;100.00;97100.22;5013589;28;20025;-78
2021/05/28 01:18:08;;;;;;;22.92;12.27;;;;;;;16.20;100.00;97102.53;4995941;28;20113;-78
2021/05/28 01:20:35;;;;;;;20.55;12.70;;;;;;;16.16;100.00;97101.94;4979799;28;20084;-80
2021/05/28 01:23:02;;;;;;;18.33;11.70;;;;;;;16.13;100.00;97094.13;4996176;28;20037;-80
2021/05/28 01:25:28;;;;;;;23.23;13.00;;;;;;;16.13;100.00;97098.66;4979411;28;20116;-80
2021/05/28 01:27:54;;;;;;;33.85;14.50;;;;;;;16.14;100.00;97097.69;4979538;28;20096;-77
2021/05/28 01:30:20;;;;;;;21.75;13.23;;;;;;;16.15;100.00;97099.41;5010522;28;20057;-77
2021/05/28 01:32:46;;;;;;;22.02;13.10;;;;;;;16.17;100.00;97103.66;5012137;28;20044;-77
2021/05/28 01:35:13;;;;;;;27.35;13.73;;;;;;;16.24;100.00;97102.09;5014695;28;20490;-78
2021/05/28 01:37:39;;;;;;;30.38;14.80;;;;;;;16.33;100.00;97111.22;5015293;28;20039;-78
2021/05/28 01:40:06;;;;;;;29.83;14.52;;;;;;;16.43;100.00;97120.13;4998891;28;20408;-78
2021/05/28 01:42:32;;;;;;;26.63;14.40;;;;;;;16.42;100.00;97112.19;4980875;28;20084;-78
2021/05/28 01:44:58;;;;;;;28.33;14.30;;;;;;;16.47;100.00;97120.72;4979871;28;20485;-78
2021/05/28 01:47:24;;;;;;;28.40;14.20;;;;;;;16.47;100.00;97116.16;4995283;28;20029;-77
2021/05/28 01:49:50;;;;;;;21.30;13.80;;;;;;;16.49;100.00;97124.16;4979237;28;20055;-78
2021/05/28 01:52:16;;;;;;;33.42;15.45;;;;;;;16.47;100.00;97126.97;4979217;28;20030;-78
2021/05/28 01:54:41;;;;;;;25.17;14.80;;;;;;;16.42;100.00;97129.25;4979175;28;20033;-79
2021/05/28 01:57:09;;;;;;;30.88;15.80;;;;;;;16.47;100.00;97139.63;4995473;28;20374;-78
2021/05/28 01:59:34;;;;;;;28.35;15.63;;;;;;;16.41;100.00;97138.34;4994807;28;20382;-78
2021/05/28 02:02:00;;;;;;;29.58;15.05;;;;;;;16.48;100.00;97142.19;4978662;28;20049;-79
2021/05/28 02:04:26;;;;;;;24.50;14.98;;;;;;;16.52;100.00;97138.19;4978779;28;20033;-78
2021/05/28 02:06:52;;;;;;;23.23;14.75;;;;;;;16.54;100.00;97136.25;4995293;28;20105;-78
2021/05/28 02:09:18;;;;;;;24.05;15.20;;;;;;;16.54;100.00;97138.06;5012890;28;20470;-79
2021/05/28 02:11:44;;;;;;;19.95;14.55;;;;;;;16.55;100.00;97148.75;4995019;28;20022;-78
2021/05/28 02:14:10;;;;;;;29.10;14.10;;;;;;;16.59;100.00;97142.06;4978887;28;20096;-79
2021/05/28 02:16:37;;;;;;;24.33;14.93;;;;;;;16.50;100.00;97136.63;5012509;28;20022;-78
2021/05/28 02:19:03;;;;;;;29.75;15.00;;;;;;;16.48;100.00;97139.50;4978838;28;20445;-78
2021/05/28 02:21:29;;;;;;;21.80;13.27;;;;;;;16.56;100.00;97142.34;4994926;28;20025;-78
2021/05/28 02:23:55;;;;;;;23.70;12.77;;;;;;;16.59;100.00;97139.38;4990403;28;20025;-78
2021/05/28 02:26:20;;;;;;;16.88;11.93;;;;;;;16.54;100.00;97133.56;4998017;28;20128;-78
2021/05/28 02:28:46;;;;;;;25.63;12.40;;;;;;;16.56;100.00;97136.09;4994540;28;20132;-78
2021/05/28 02:31:12;;;;;;;21.05;12.30;;;;;;;16.52;100.00;97129.25;5011114;28;20018;-78
2021/05/28 02:33:38;;;;;;;18.58;12.20;;;;;;;16.43;100.00;97130.94;5011182;28;20111;-78
2021/05/28 02:36:04;;;;;;;19.45;12.73;;;;;;;16.39;100.00;97134.94;4994868;28;20018;-77
2021/05/28 02:38:30;;;;;;;17.52;12.25;;;;;;;16.41;100.00;97138.34;5011028;28;20121;-78
2021/05/28 02:40:56;;;;;;;20.48;12.07;;;;;;;16.37;100.00;97142.31;5012491;28;20100;-78
2021/05/28 02:43:22;;;;;;;16.75;11.73;;;;;;;16.34;100.00;97126.38;4994764;28;20022;-78
2021/05/28 02:45:47;;;;;;;20.67;12.65;;;;;;;16.33;100.00;97121.16;4978330;28;20113;-78
2021/05/28 02:48:13;;;;;;;22.90;13.13;;;;;;;16.27;100.00;97103.69;5011103;28;20117;-78
2021/05/28 02:50:38;;;;;;;24.75;12.52;;;;;;;16.33;100.00;97110.34;5009387;28;20040;-79
2021/05/28 02:53:04;;;;;;;16.55;12.25;;;;;;;16.27;100.00;97112.59;4974745;28;20560;-81
2021/05/28 02:55:30;;;;;;;28.77;13.05;;;;;;;16.21;100.00;97110.47;4958283;28;20049;-80
2021/05/28 02:57:55;;;;;;;20.50;12.25;;;;;;;16.11;100.00;97112.31;4985754;28;20029;-81
2021/05/28 03:00:22;;;;;;;22.23;13.75;;;;;;;16.03;100.00;97105.88;4987042;28;20413;-81
2021/05/28 03:02:48;;;;;;;22.55;14.18;;;;;;;15.99;100.00;97108.03;5001990;28;20446;-79
2021/05/28 03:05:14;;;;;;;23.67;14.18;;;;;;;16.01;100.00;97119.53;4995112;28;20054;-79
2021/05/28 03:07:40;;;;;;;23.42;14.55;;;;;;;15.98;100.00;97119.81;5010168;28;20494;-79
2021/05/28 03:10:06;;;;;;;23.80;14.05;;;;;;;16.00;100.00;97117.81;5005703;28;20041;-79
2021/05/28 03:12:31;;;;;;;22.90;14.68;;;;;;;16.00;100.00;97116.97;4998045;28;20578;-79
2021/05/28 03:14:57;;;;;;;20.65;11.98;;;;;;;16.04;100.00;97123.78;5013738;28;20061;-79
2021/05/28 03:17:23;;;;;;;20.05;11.38;;;;;;;16.10;100.00;97117.84;5006156;28;20034;-78
2021/05/28 03:19:49;;;;;;;18.95;12.38;;;;;;;16.14;100.00;97124.69;5003932;28;20076;-78
2021/05/28 03:25:08;;;;;;;17.08;12.45;;;;;;;16.26;100.00;97115.47;4981169;28;20118;-79
2021/05/28 03:27:34;;;;;;;20.95;13.98;;;;;;;16.30;100.00;97119.59;4978266;28;20097;-79
2021/05/28 03:29:59;;;;;;;28.00;13.32;;;;;;;16.41;100.00;97118.59;4993877;28;20054;-79
2021/05/28 03:32:25;;;;;;;21.98;11.38;;;;;;;16.40;100.00;97125.81;5010511;28;20033;-79
2021/05/28 03:34:53;;;;;;;35.88;10.40;;;;;;;16.47;100.00;97142.31;4997637;28;20030;-80
2021/05/28 03:37:19;;;;;;;15.27;7.50;;;;;;;16.47;100.00;97148.56;5008337;28;20053;-79
2021/05/28 03:39:48;;;;;;;16.73;8.00;;;;;;;16.39;100.00;97150.28;4999871;28;20030;-78
2021/05/28 03:42:14;;;;;;;15.73;7.55;;;;;;;16.36;100.00;97162.22;4995778;28;20506;-79
2021/05/28 03:44:39;;;;;;;17.70;7.47;;;;;;;16.33;100.00;97167.91;4974899;28;20061;-78
2021/05/28 03:47:05;;;;;;;18.45;7.82;;;;;;;16.28;100.00;97164.75;5002008;28;20026;-78
2021/05/28 03:49:31;;;;;;;13.70;8.02;;;;;;;16.32;100.00;97171.56;5004847;28;20041;-79
2021/05/28 03:51:56;;;;;;;20.95;7.95;;;;;;;16.36;100.00;97167.63;5003148;28;20034;-78
2021/05/28 03:54:22;;;;;;;22.35;8.23;;;;;;;16.43;100.00;97175.97;4978291;28;20018;-84
2021/05/28 03:56:49;;;;;;;18.63;8.32;;;;;;;16.40;100.00;97171.72;4962588;28;20029;-83
2021/05/28 03:59:14;;;;;;;13.93;8.90;;;;;;;16.40;100.00;97173.56;4997307;28;20164;-84
2021/05/28 04:01:40;;;;;;;12.27;8.95;;;;;;;16.37;100.00;97173.84;4980885;28;20497;-84
2021/05/28 04:04:06;;;;;;;14.50;8.82;;;;;;;16.52;100.00;97181.41;4981084;28;20041;-84
2021/05/28 04:06:31;;;;;;;16.05;9.57;;;;;;;16.51;100.00;97170.75;5013386;28;20508;-85
2021/05/28 04:08:57;;;;;;;13.45;9.48;;;;;;;16.63;100.00;97181.31;4994788;28;20041;-84
2021/05/28 04:11:23;;;;;;;15.95;9.35;;;;;;;16.69;100.00;97177.19;4979547;28;20401;-82
2021/05/28 04:13:49;;;;;;;15.10;9.38;;;;;;;16.85;100.00;97179.31;4993739;28;20085;-80
2021/05/28 04:16:15;;;;;;;14.38;9.05;;;;;;;16.94;100.00;97186.56;4977965;28;20030;-80
2021/05/28 04:18:40;;;;;;;19.45;9.25;;;;;;;16.94;100.00;97184.72;4960950;28;20038;-81
2021/05/28 04:21:06;;;;;;;20.02;10.98;;;;;;;17.02;100.00;97200.22;4996256;28;20045;-81
2021/05/28 04:23:32;;;;;;;12.40;8.82;;;;;;;16.94;100.00;97189.28;4990695;28;20034;-79
2021/05/28 04:25:57;;;;;;;15.07;8.65;;;;;;;16.90;100.00;97194.09;4977486;28;20440;-80
2021/05/28 04:28:25;;;;;;;16.55;8.45;;;;;;;16.88;100.00;97195.25;5004395;28;20117;-79
2021/05/28 04:30:50;;;;;;;15.85;9.10;;;;;;;16.85;100.00;97190.13;4987378;28;20042;-78
2021/05/28 04:33:16;;;;;;;13.60;8.93;;;;;;;16.76;100.00;97189.97;4990172;28;20034;-78
2021/05/28 04:35:41;;;;;;;11.48;7.55;;;;;;;16.59;100.00;97195.22;5000199;28;20065;-78
2021/05/28 04:38:07;;;;;;;14.75;7.95;;;;;;;16.44;100.00;97177.69;4996281;28;20402;-78
2021/05/28 04:40:33;;;;;;;19.65;9.73;;;;;;;16.37;100.00;97176.53;4994094;28;20412;-78
2021/05/28 04:42:59;;;;;;;15.63;11.35;;;;;;;16.35;100.00;97178.53;4981552;28;20041;-78
2021/05/28 04:45:25;;;;;;;19.80;10.70;;;;;;;16.30;100.00;97180.81;5001140;28;20029;-78
2021/05/28 04:47:51;;;;;;;19.00;11.32;;;;;;;16.27;100.00;97184.66;4991081;28;20060;-79
2021/05/28 04:50:16;;;;;;;17.70;10.30;;;;;;;16.30;100.00;97172.72;5011840;28;20105;-78
2021/05/28 04:52:42;;;;;;;16.83;10.90;;;;;;;16.27;100.00;97171.16;4987784;28;20068;-79
2021/05/28 04:55:09;;;;;;;17.92;9.85;;;;;;;16.33;100.00;97167.91;5012321;28;20505;-78
2021/05/28 04:57:35;;;;;;;19.90;10.55;;;;;;;16.40;100.00;97162.75;5004364;28;20014;-77
2021/05/28 05:00:03;;;;;;;20.05;10.18;;;;;;;16.50;100.00;97167.19;4995938;28;20038;-78
2021/05/28 05:02:29;;;;;;;19.08;10.85;;;;;;;16.57;100.00;97170.22;4993035;28;20026;-79
2021/05/28 05:04:57;;;;;;;15.98;11.25;;;;;;;16.58;100.00;97172.75;5024757;28;20083;-78
2021/05/28 05:07:23;;;;;;;20.38;11.23;;;;;;;16.67;100.00;97163.81;5015583;28;20489;-78
2021/05/28 05:09:49;;;;;;;26.45;13.32;;;;;;;16.66;100.00;97164.81;5000058;28;20040;-80
2021/05/28 05:12:14;;;;;;;18.52;11.68;;;;;;;16.69;100.00;97153.75;4990545;28;20021;-78
2021/05/28 05:14:40;;;;;;;23.75;13.55;;;;;;;16.72;100.00;97168.81;4999148;28;20037;-79
2021/05/28 05:17:06;;;;;;;18.05;12.00;;;;;;;16.76;100.00;97171.06;4997009;28;20148;-78
2021/05/28 05:19:31;;;;;;;18.63;12.13;;;;;;;16.83;100.00;97171.34;4995653;28;20096;-78
2021/05/28 05:21:57;;;;;;;17.52;12.10;;;;;;;16.98;100.00;97174.50;5003710;28;20028;-78
2021/05/28 05:24:22;;;;;;;17.42;11.80;;;;;;;17.16;100.00;97194.38;5007610;28;20044;-78
2021/05/28 05:26:49;;;;;;;18.00;10.63;;;;;;;17.24;100.00;97195.34;4991306;28;20527;-78
2021/05/28 05:29:15;;;;;;;17.95;10.88;;;;;;;17.20;100.00;97190.38;5002876;28;20473;-79
2021/05/28 05:31:40;;;;;;;16.52;10.85;;;;;;;17.29;100.00;97179.53;4986391;28;20040;-80
2021/05/28 05:34:06;;;;;;;16.48;10.73;;;;;;;17.30;100.00;97186.66;4988627;28;20030;-79
2021/05/28 05:36:39;;;;;;;19.75;10.77;;;;;;;17.39;100.00;97198.44;4982343;28;20121;-79
2021/05/28 05:39:04;;;;;;;22.52;10.02;;;;;;;17.52;100.00;97204.41;5002550;28;20018;-80
2021/05/28 05:41:30;;;;;;;17.33;10.57;;;;;;;17.68;100.00;97211.94;4987125;28;20092;-78
2021/05/28 05:43:56;;;;;;;13.88;9.63;;;;;;;17.55;100.00;97201.44;4987719;28;20532;-78
2021/05/28 05:46:22;;;;;;;12.07;9.57;;;;;;;17.59;100.00;97219.09;5008126;28;20037;-78
2021/05/28 05:48:47;;;;;;;11.70;9.45;;;;;;;17.56;100.00;97203.16;4982368;28;20029;-78
2021/05/28 05:51:13;;;;;;;17.55;8.05;;;;;;;17.58;100.00;97203.00;4987572;28;20037;-78
2021/05/28 05:53:38;;;;;;;10.43;8.00;;;;;;;17.58;100.00;97213.81;4983942;28;20036;-78
2021/05/28 05:56:04;;;;;;;12.15;7.88;;;;;;;17.66;100.00;97217.47;5010069;28;20038;-78
2021/05/28 05:58:30;;;;;;;8.98;7.72;;;;;;;17.67;100.00;97221.06;5032332;28;20056;-78
2021/05/28 06:00:55;;;;;;;14.23;8.77;;;;;;;17.64;100.00;97224.91;4979447;28;20132;-78
2021/05/28 06:03:21;;;;;;;11.55;8.25;;;;;;;17.69;100.00;97219.91;5002594;28;20030;-78
2021/05/28 06:05:46;;;;;;;13.05;7.68;;;;;;;17.88;100.00;97227.09;5004985;28;20033;-79
2021/05/28 06:08:12;;;;;;;12.63;8.40;;;;;;;17.95;100.00;97225.50;5011405;28;20040;-79
2021/05/28 06:10:37;;;;;;;13.82;9.23;;;;;;;18.05;100.00;97220.94;5004753;28;20030;-78
2021/05/28 06:13:04;;;;;;;11.93;7.95;;;;;;;18.10;100.00;97228.59;4987629;28;20026;-79
2021/05/28 06:15:30;;;;;;;13.35;7.82;;;;;;;18.10;100.00;97229.44;4978443;28;20030;-78
2021/05/28 06:17:56;;;;;;;11.63;7.10;;;;;;;18.06;100.00;97232.56;4985762;28;20099;-78
2021/05/28 06:20:21;;;;;;;10.52;7.70;;;;;;;18.00;100.00;97239.44;5000353;28;20113;-78
2021/05/28 06:22:48;;;;;;;21.42;11.82;;;;;;;17.94;100.00;97241.88;5016363;28;20517;-79
2021/05/28 06:25:14;;;;;;;19.00;12.57;;;;;;;17.76;100.00;97242.66;4994156;28;20033;-78
2021/05/28 06:27:40;;;;;;;10.07;6.55;;;;;;;17.62;100.00;97245.84;5012102;28;20030;-78
2021/05/28 06:30:07;;;;;;;15.38;6.68;;;;;;;17.48;100.00;97243.56;4993949;28;20056;-80
2021/05/28 06:32:32;;;;;;;13.45;6.95;;;;;;;17.32;100.00;97238.72;4994375;28;20026;-78
2021/05/28 06:34:58;;;;;;;16.30;6.85;;;;;;;17.34;100.00;97246.72;4986132;28;20507;-78
2021/05/28 06:37:23;;;;;;;16.02;9.15;;;;;;;17.38;100.00;97237.28;4996811;28;20034;-79
2021/05/28 06:39:49;;;;;;;18.42;8.23;;;;;;;17.34;100.00;97241.31;5017519;28;20456;-78
2021/05/28 06:42:14;;;;;;;13.35;8.23;;;;;;;17.25;100.00;97234.91;4995297;28;20409;-78
2021/05/28 06:44:40;;;;;;;11.25;7.57;;;;;;;17.16;100.00;97226.81;5005747;28;20091;-78
2021/05/28 06:47:06;;;;;;;15.38;7.82;;;;;;;17.09;100.00;97228.38;5005107;28;20036;-78
2021/05/28 06:49:31;;;;;;;13.90;7.85;;;;;;;17.16;100.00;97237.63;5010506;28;20104;-78
2021/05/28 06:51:57;;;;;;;15.60;7.68;;;;;;;17.30;100.00;97231.78;5004199;28;20026;-79
2021/05/28 06:54:22;;;;;;;11.57;6.93;;;;;;;17.42;100.00;97238.72;4978018;28;20456;-79
2021/05/28 06:56:48;;;;;;;14.05;6.93;;;;;;;17.63;100.00;97227.75;4978083;28;20025;-78
2021/05/28 06:59:14;;;;;;;13.82;6.85;;;;;;;17.72;100.00;97233.13;4986605;28;20507;-78
2021/05/28 07:01:39;;;;;;;9.07;7.03;;;;;;;17.85;100.00;97236.38;5001563;28;20030;-78
2021/05/28 07:04:05;;;;;;;9.43;7.32;;;;;;;18.05;100.00;97242.59;4978292;28;20057;-78
2021/05/28 07:06:32;;;;;;;11.80;8.38;;;;;;;18.00;100.00;97238.59;5002053;28;20029;-78
2021/05/28 07:08:57;;;;;;;9.93;5.88;;;;;;;18.21;100.00;97236.53;5000822;28;20400;-78
2021/05/28 07:11:24;;;;;;;10.00;4.75;;;;;;;18.15;99.04;97250.66;5005511;28;20113;-78
2021/05/28 07:13:50;;;;;;;10.50;4.80;;;;;;;18.50;97.48;97264.34;5008353;28;20021;-78
2021/05/28 07:16:16;;;;;;;10.02;4.97;;;;;;;19.18;97.60;97248.47;5010235;28;20029;-79
2021/05/28 07:18:42;;;;;;;8.32;5.10;;;;;;;20.21;91.75;97248.56;5001884;28;20022;-78
2021/05/28 07:21:07;;;;;;;7.95;3.58;;;;;;;20.78;82.45;97255.09;4993153;28;20473;-78
2021/05/28 07:23:33;;;;;;;6.40;4.05;;;;;;;22.04;79.09;97263.75;4997129;28;20036;-78
2021/05/28 07:26:01;;;;;;;4.95;3.78;;;;;;;23.79;69.17;97264.06;5013428;28;20022;-78
2021/05/28 07:28:30;;;;;;;5.50;3.33;;;;;;;25.73;60.24;97267.16;4987158;28;20053;-79
2021/05/28 07:30:57;;;;;;;4.40;2.92;;;;;;;25.93;55.79;97261.84;4977498;28;20104;-79
2021/05/28 07:33:22;;;;;;;6.28;3.40;;;;;;;25.93;56.02;97262.72;5003047;28;20022;-78
2021/05/28 07:35:48;;;;;;;3.35;2.70;;;;;;;26.67;56.66;97260.31;5005365;28;20400;-79
2021/05/28 07:38:14;;;;;;;2.95;2.53;;;;;;;29.43;47.79;97267.69;5005193;28;20035;-78
2021/05/28 07:40:40;;;;;;;6.18;2.78;;;;;;;28.95;45.54;97258.94;4993513;28;20029;-78
2021/05/28 07:43:06;;;;;;;3.65;2.50;;;;;;;28.52;46.46;97253.09;4992230;28;20025;-79
2021/05/28 07:45:33;;;;;;;3.42;2.80;;;;;;;28.26;47.67;97257.81;4994455;28;20041;-79
2021/05/28 07:47:58;;;;;;;5.05;3.00;;;;;;;27.45;51.36;97262.56;4977260;28;20413;-78
2021/05/28 07:50:24;;;;;;;8.50;3.20;;;;;;;26.09;54.36;97256.91;4993341;28;20026;-78
2021/05/28 07:52:50;;;;;;;5.10;3.05;;;;;;;25.79;58.61;97261.72;5006253;28;20029;-78
2021/05/28 07:55:15;;;;;;;7.15;3.47;;;;;;;25.87;58.28;97258.03;4988703;28;20044;-78
2021/05/28 07:57:41;;;;;;;7.32;3.47;;;;;;;26.18;52.79;97252.19;5004971;28;20033;-78
2021/05/28 08:00:08;;;;;;;5.40;3.80;;;;;;;25.67;56.59;97246.00;4984907;28;20030;-79
2021/05/28 08:02:34;;;;;;;6.93;3.70;;;;;;;23.94;60.75;97253.16;5012903;28;20029;-78
2021/05/28 08:04:59;;;;;;;4.78;3.63;;;;;;;22.92;66.36;97246.22;4988612;28;20090;-78
2021/05/28 08:07:25;;;;;;;4.85;3.20;;;;;;;22.10;70.00;97241.25;4996522;28;20121;-78
2021/05/28 08:09:51;;;;;;;7.10;3.33;;;;;;;22.13;68.91;97254.53;5001195;28;20404;-79
2021/05/28 08:12:19;;;;;;;9.18;3.08;;;;;;;21.85;68.25;97254.03;5033936;28;20043;-78
2021/05/28 08:14:45;;;;;;;5.93;3.63;;;;;;;21.72;69.91;97259.16;5012943;28;20839;-78
2021/05/28 08:17:10;;;;;;;9.27;3.97;;;;;;;21.54;74.61;97255.75;5004785;28;20099;-79
2021/05/28 08:19:36;;;;;;;5.72;3.58;;;;;;;21.63;73.68;97252.00;5007099;28;20452;-79
2021/05/28 08:22:02;;;;;;;7.22;4.18;;;;;;;21.45;74.36;97259.50;4999833;28;20092;-79
2021/05/28 08:24:27;;;;;;;6.65;4.25;;;;;;;21.32;72.59;97264.63;4990587;28;20029;-78
2021/05/28 08:26:53;;;;;;;4.97;3.80;;;;;;;21.24;74.04;97265.44;5004403;28;20429;-79
2021/05/28 08:29:18;;;;;;;20.15;4.05;;;;;;;21.15;72.81;97277.34;5021321;28;20128;-78
2021/05/28 08:31:44;;;;;;;7.20;3.70;;;;;;;21.20;76.16;97288.56;5004596;28;20041;-80
2021/05/28 08:34:09;;;;;;;5.28;3.33;;;;;;;21.17;75.74;97302.50;5004429;28;20036;-79
2021/05/28 08:36:35;;;;;;;5.78;3.67;;;;;;;21.25;77.24;97298.94;5004195;28;20108;-79
2021/05/28 08:39:01;;;;;;;4.40;3.55;;;;;;;21.21;77.92;97294.84;4993259;28;20041;-79
2021/05/28 08:41:26;;;;;;;7.30;4.72;;;;;;;21.05;79.13;97292.91;5015438;28;20038;-78
2021/05/28 08:43:52;;;;;;;5.22;4.20;;;;;;;20.80;78.20;97294.69;5015718;28;20103;-79
2021/05/28 08:46:20;;;;;;;4.60;3.60;;;;;;;20.48;81.43;97290.00;5025280;28;20037;-79
2021/05/28 08:48:48;;;;;;;9.82;4.57;;;;;;;20.27;86.17;97300.41;5007710;28;20107;-79
2021/05/28 08:51:13;;;;;;;6.22;4.53;;;;;;;20.02;84.63;97293.97;4985090;28;20033;-79
2021/05/28 08:53:39;;;;;;;8.98;5.07;;;;;;;19.82;86.64;97303.31;5011849;28;20036;-78
2021/05/28 08:56:08;;;;;;;9.18;5.05;;;;;;;19.62;91.03;97307.22;5021568;28;20022;-79
2021/05/28 08:58:35;;;;;;;7.13;5.60;;;;;;;19.29;94.18;97316.88;4988806;28;20079;-79
2021/05/28 09:01:00;;;;;;;9.52;5.32;;;;;;;19.00;97.09;97320.81;5011238;28;20022;-79
2021/05/28 09:05:54;;;;;;;7.47;5.20;;;;;;;18.49;98.71;97330.34;5013364;28;20404;-79
2021/05/28 09:08:24;;;;;;;11.35;6.00;;;;;;;18.43;100.00;97339.03;5002838;28;20558;-78
2021/05/28 09:10:50;;;;;;;13.05;5.13;;;;;;;18.16;100.00;97325.44;5014944;28;20025;-79
2021/05/28 09:13:18;;;;;;;8.80;5.25;;;;;;;17.80;100.00;97319.84;4992538;28;20028;-79
2021/05/28 09:15:46;;;;;;;7.95;4.00;;;;;;;17.64;100.00;97319.59;5023129;28;20501;-79
2021/05/28 09:18:13;;;;;;;7.90;4.78;;;;;;;17.47;100.00;97317.59;5007101;28;20036;-79
2021/05/28 09:20:44;;;;;;;0.77;0.60;;;;;;;17.43;100.00;97326.97;5015168;28;20029;-78
2021/05/28 09:23:14;;;;;;;0.68;0.50;;;;;;;17.28;100.00;97320.28;4998878;28;20060;-79
2021/05/28 09:25:53;;;;;;;0.57;0.57;;;;;;;17.09;100.00;97322.97;5023487;28;20034;-78
2021/05/28 09:28:18;;;;;;;1.35;0.60;;;;;;;16.68;100.00;97314.06;5013267;28;20109;-77
2021/05/28 09:30:59;;;;;;;1.85;0.57;;;;;;;16.52;100.00;97332.59;4995628;28;20125;-77
2021/05/28 09:33:25;;;;;;;0.30;0.10;;;;;;;16.47;100.00;97315.97;4988534;28;20029;-78
2021/05/28 09:35:52;;;;;;;1.17;0.65;;;;;;;16.60;100.00;97323.88;4995309;28;20034;-79
2021/05/28 09:38:24;;;;;;;0.55;0.55;;;;;;;16.63;100.00;97327.16;4995685;28;20554;-80
2021/05/28 09:40:52;;;;;;;1.20;0.52;;;;;;;16.54;100.00;97311.78;5019180;28;20528;-90
2021/05/28 09:43:23;;;;;;;0.73;0.30;;;;;;;16.73;100.00;97319.09;4986417;28;20397;-90
2021/05/28 09:45:49;;;;;;;0.32;0.32;;;;;;;16.93;100.00;97312.72;4981733;28;20032;-80
2021/05/28 09:48:14;;;;;;;1.65;0.47;;;;;;;17.24;100.00;97329.66;4978674;28;20021;-80
2021/05/28 09:50:49;;;;;;;0.13;0.13;;;;;;;17.39;100.00;97333.66;4997954;28;20038;-80
2021/05/28 09:53:29;;;;;;;0.25;0.25;;;;;;;17.43;100.00;97316.16;4996929;28;20120;-79
2021/05/28 09:55:56;;;;;;;0.63;0.63;;;;;;;17.56;100.00;97316.75;4982367;28;20025;-79
2021/05/28 09:58:22;;;;;;;0.80;0.43;;;;;;;17.93;100.00;97316.84;4999739;28;20036;-79
2021/05/28 10:00:48;;;;;;;0.60;0.50;;;;;;;18.24;100.00;97302.03;5002079;28;20030;-79
2021/05/28 10:03:22;;;;;;;0.47;0.43;;;;;;;18.83;94.92;97325.19;4997902;28;20120;-79
2021/05/28 10:05:58;;;;;;;0.55;0.17;;;;;;;19.65;90.82;97323.19;4999808;28;20456;-80
2021/05/28 10:08:25;;;;;;;0.20;0.20;;;;;;;20.54;87.48;97316.53;4988664;28;20463;-80
2021/05/28 10:10:52;;;;;;;4.55;1.35;;;;;;;21.74;80.30;97333.38;4981402;28;20034;-79
2021/05/28 10:13:19;;;;;;;0.30;0.30;;;;;;;22.93;75.18;97331.66;4995770;28;20123;-80
2021/05/28 10:15:46;;;;;;;0.70;0.38;;;;;;;23.77;71.83;97339.91;4995606;28;20080;-79
2021/05/28 10:18:12;;;;;;;0.40;0.40;;;;;;;24.68;63.31;97347.94;4978952;28;20030;-81
2021/05/28 10:20:39;;;;;;;1.00;0.22;;;;;;;24.88;62.79;97345.53;4978318;28;20026;-80
2021/05/28 10:23:06;;;;;;;1.75;0.63;;;;;;;25.70;62.37;97341.53;4970655;28;20548;-80
2021/05/28 10:25:33;;;;;;;0.60;0.45;;;;;;;25.14;62.00;97343.16;4994886;28;20052;-81
2021/05/28 10:28:00;;;;;;;0.10;0.10;;;;;;;26.00;60.21;97345.00;4978264;28;20029;-80
2021/05/28 10:30:28;;;;;;;0.28;0.20;;;;;;;26.66;54.80;97340.94;4987553;28;20116;-81
2021/05/28 10:33:22;;;;;;;2.08;0.30;;;;;;;27.07;57.05;97344.59;4984724;28;20036;-80
2021/05/28 10:35:54;;;;;;;0.32;0.28;;;;;;;27.28;53.29;97336.25;4997114;28;20514;-81
2021/05/28 10:38:32;;;;;;;0.38;0.38;;;;;;;27.89;50.59;97339.00;4994726;28;20413;-80
2021/05/28 10:41:06;;;;;;;0.00;0.00;;;;;;;28.16;49.20;97332.50;5010461;28;20131;-81
2021/05/28 10:43:34;;;;;;;0.52;0.52;;;;;;;28.13;47.96;97321.94;4994427;28;20032;-81
2021/05/28 10:46:04;;;;;;;0.20;0.20;;;;;;;27.81;50.02;97325.47;4994347;28;20440;-81
2021/05/28 10:48:42;;;;;;;0.22;0.22;;;;;;;28.01;48.75;97337.34;5003114;28;20057;-81
2021/05/28 10:51:12;;;;;;;0.08;0.08;;;;;;;29.37;48.29;97331.94;4994264;28;20022;-81
2021/05/28 10:53:38;;;;;;;0.38;0.32;;;;;;;30.07;43.12;97335.63;4995107;28;20402;-81
2021/05/28 10:56:07;;;;;;;0.00;0.00;;;;;;;30.99;39.96;97340.38;5005271;28;20404;-81
2021/05/28 10:59:02;;;;;;;0.10;0.10;;;;;;;28.77;44.77;97337.81;4997734;28;20033;-80
2021/05/28 11:01:53;;;;;;;0.00;0.00;;;;;;;27.62;47.52;97334.50;4983804;28;20064;-81
2021/05/28 11:04:24;;;;;;;0.20;0.20;;;;;;;27.37;49.01;97337.78;4994918;28;20036;-81
2021/05/28 11:06:59;;;;;;;0.20;0.20;;;;;;;26.63;49.16;97331.22;5012425;28;20117;-80
2021/05/28 11:09:48;;;;;;;1.20;0.47;;;;;;;26.76;49.88;97335.94;5014064;28;20026;-81
2021/05/28 11:12:36;;;;;;;3.70;0.80;;;;;;;26.59;52.37;97334.53;4997637;28;20116;-81
2021/05/28 11:15:06;;;;;;;0.50;0.50;;;;;;;26.21;54.31;97343.13;5022788;28;20072;-80
2021/05/28 11:17:32;;;;;;;0.13;0.13;;;;;;;25.79;55.34;97337.63;5013712;28;20116;-80
2021/05/28 11:20:05;;;;;;;0.05;0.03;;;;;;;25.07;52.82;97334.84;4997228;28;20029;-80
2021/05/28 11:22:37;;;;;;;0.28;0.25;;;;;;;24.64;57.80;97341.19;5013686;28;20033;-81